createdAt,value
2018-07-12T00:00:16.840Z,56.96
2018-07-12T00:01:16.858Z,56.94
2018-07-12T00:02:16.825Z,56.91
2018-07-12T00:03:16.957Z,56.91
2018-07-12T00:04:16.855Z,56.91
2018-07-12T00:05:16.794Z,56.95
2018-07-12T00:06:16.844Z,56.96
2018-07-12T00:07:16.749Z,56.9
2018-07-12T00:08:17.057Z,56.92
2018-07-12T00:09:16.937Z,57
2018-07-12T00:10:16.756Z,56.94
2018-07-12T00:11:16.699Z,56.97
2018-07-12T00:12:16.716Z,57
2018-07-12T00:13:16.885Z,56.9
2018-07-12T00:14:16.869Z,56.93
2018-07-12T00:15:16.805Z,56.97
2018-07-12T00:16:16.623Z,56.93
2018-07-12T00:17:16.714Z,56.93
2018-07-12T00:18:16.785Z,56.9
2018-07-12T00:19:16.839Z,56.91
2018-07-12T00:20:16.731Z,56.95
2018-07-12T00:21:16.798Z,56.96
2018-07-12T00:22:16.834Z,56.9
2018-07-12T00:23:16.821Z,56.94
2018-07-12T00:24:16.824Z,56.94
2018-07-12T00:25:16.682Z,56.89
2018-07-12T00:26:16.885Z,56.87
2018-07-12T00:27:16.885Z,56.93
2018-07-12T00:28:16.906Z,56.9
2018-07-12T00:29:16.830Z,56.92
2018-07-12T00:30:16.794Z,56.94
2018-07-12T00:31:16.771Z,56.93
2018-07-12T00:32:16.840Z,56.89
2018-07-12T00:33:16.838Z,56.89
2018-07-12T00:34:16.695Z,56.91
2018-07-12T00:35:16.807Z,56.95
2018-07-12T00:36:16.857Z,56.93
2018-07-12T00:37:17.066Z,56.9
2018-07-12T00:38:17.003Z,56.92
2018-07-12T00:39:16.987Z,56.95
2018-07-12T00:40:16.736Z,56.91
2018-07-12T00:41:16.718Z,56.92
2018-07-12T00:42:16.899Z,56.96
2018-07-12T00:43:16.930Z,56.91
2018-07-12T00:44:16.809Z,56.94
2018-07-12T00:45:16.909Z,56.94
2018-07-12T00:46:16.721Z,56.94
2018-07-12T00:47:16.693Z,56.93
2018-07-12T00:48:16.742Z,56.95
2018-07-12T00:49:16.847Z,56.91
2018-07-12T00:50:16.897Z,56.96
2018-07-12T00:51:16.846Z,56.98
2018-07-12T00:52:16.891Z,56.93
2018-07-12T00:53:16.918Z,56.93
2018-07-12T00:54:16.659Z,56.97
2018-07-12T00:55:16.910Z,56.94
2018-07-12T00:56:16.782Z,56.96
2018-07-12T00:57:16.651Z,56.96
2018-07-12T00:58:16.750Z,56.93
2018-07-12T00:59:16.815Z,56.97
2018-07-12T01:00:16.869Z,56.98
2018-07-12T01:01:16.921Z,56.95
2018-07-12T01:02:16.833Z,56.93
2018-07-12T01:03:27.060Z,56.98
2018-07-12T01:04:16.840Z,56.95
2018-07-12T01:05:16.918Z,56.97
2018-07-12T01:06:16.848Z,56.98
2018-07-12T01:07:16.926Z,56.99
2018-07-12T01:08:16.811Z,56.99
2018-07-12T01:09:16.969Z,57
2018-07-12T01:10:16.685Z,56.99
2018-07-12T01:11:16.862Z,56.95
2018-07-12T01:12:16.638Z,57
2018-07-12T01:13:16.620Z,56.98
2018-07-12T01:14:16.764Z,56.97
2018-07-12T01:15:16.815Z,57.01
2018-07-12T01:16:16.803Z,56.98
2018-07-12T01:17:16.681Z,57
2018-07-12T01:18:16.788Z,56.95
2018-07-12T01:19:16.909Z,56.98
2018-07-12T01:20:16.850Z,56.95
2018-07-12T01:21:16.882Z,57.01
2018-07-12T01:22:16.888Z,56.99
2018-07-12T01:23:16.715Z,57
2018-07-12T01:24:16.847Z,57.01
2018-07-12T01:25:16.835Z,57.01
2018-07-12T01:26:16.698Z,56.98
2018-07-12T01:27:16.948Z,57.02
2018-07-12T01:28:16.937Z,57
2018-07-12T01:29:16.721Z,56.97
2018-07-12T01:30:16.700Z,57.02
2018-07-12T01:31:16.958Z,57.03
2018-07-12T01:32:16.796Z,57.01
2018-07-12T01:33:16.839Z,56.99
2018-07-12T01:34:16.834Z,56.97
2018-07-12T01:35:16.774Z,56.98
2018-07-12T01:36:16.878Z,57.01
2018-07-12T01:37:16.755Z,57
2018-07-12T01:38:16.878Z,56.99
2018-07-12T01:39:16.649Z,57.01
2018-07-12T01:40:16.813Z,56.99
2018-07-12T01:41:16.702Z,57
2018-07-12T01:42:16.759Z,57.02
2018-07-12T01:43:16.869Z,57.03
2018-07-12T01:44:16.926Z,56.99
2018-07-12T01:45:16.991Z,57.04
2018-07-12T01:46:16.762Z,57
2018-07-12T01:47:16.744Z,56.98
2018-07-12T01:48:16.669Z,57.02
2018-07-12T01:49:16.727Z,56.98
2018-07-12T01:50:16.834Z,56.98
2018-07-12T01:51:16.815Z,57.04
2018-07-12T01:52:16.831Z,57.01
2018-07-12T01:53:16.810Z,57.03
2018-07-12T01:54:16.752Z,57
2018-07-12T01:55:16.790Z,57.04
2018-07-12T01:56:16.933Z,57.03
2018-07-12T01:57:16.658Z,57.03
2018-07-12T01:58:16.890Z,57.03
2018-07-12T01:59:16.922Z,57.04
2018-07-12T02:00:16.822Z,57.04
2018-07-12T02:01:16.988Z,57
2018-07-12T02:02:17.093Z,56.99
2018-07-12T02:03:16.835Z,57.02
2018-07-12T02:04:16.801Z,57
2018-07-12T02:05:16.731Z,57.02
2018-07-12T02:06:16.606Z,57.04
2018-07-12T02:07:16.924Z,57.02
2018-07-12T02:08:16.843Z,57
2018-07-12T02:09:16.749Z,57.04
2018-07-12T02:10:17.049Z,57.03
2018-07-12T02:11:16.866Z,57.04
2018-07-12T02:12:16.890Z,57.02
2018-07-12T02:13:16.897Z,57.03
2018-07-12T02:14:16.869Z,57.02
2018-07-12T02:15:16.839Z,57.02
2018-07-12T02:16:16.898Z,57.03
2018-07-12T02:17:16.890Z,57.01
2018-07-12T02:18:16.757Z,57.04
2018-07-12T02:19:16.790Z,57.03
2018-07-12T02:20:16.853Z,56.99
2018-07-12T02:21:16.732Z,57.02
2018-07-12T02:22:16.923Z,57.02
2018-07-12T02:23:16.735Z,57.04
2018-07-12T02:24:16.727Z,57.02
2018-07-12T02:25:16.850Z,57.04
2018-07-12T02:26:16.864Z,57.06
2018-07-12T02:27:16.776Z,57.03
2018-07-12T02:28:16.877Z,57.01
2018-07-12T02:29:16.848Z,57.05
2018-07-12T02:30:16.880Z,57.02
2018-07-12T02:31:17.364Z,57.03
2018-07-12T02:32:17.773Z,57.02
2018-07-12T02:33:17.347Z,57.03
2018-07-12T02:34:17.590Z,57.03
2018-07-12T02:35:17.724Z,57
2018-07-12T02:36:17.368Z,57.08
2018-07-12T02:37:17.452Z,57.05
2018-07-12T02:38:17.520Z,57.06
2018-07-12T02:39:17.525Z,57.07
2018-07-12T02:40:17.491Z,57.06
2018-07-12T02:41:17.413Z,57.06
2018-07-12T02:42:17.268Z,57.05
2018-07-12T02:43:17.383Z,57.02
2018-07-12T02:44:17.393Z,57.03
2018-07-12T02:45:17.398Z,57.04
2018-07-12T02:46:17.369Z,57.05
2018-07-12T02:47:17.429Z,57.05
2018-07-12T02:48:17.359Z,57.06
2018-07-12T02:49:17.468Z,57.05
2018-07-12T02:50:17.542Z,57.04
2018-07-12T02:51:17.218Z,57.05
2018-07-12T02:52:17.354Z,57.06
2018-07-12T02:53:17.539Z,57.05
2018-07-12T02:54:17.422Z,57.06
2018-07-12T02:55:17.488Z,57.05
2018-07-12T02:56:17.292Z,57.05
2018-07-12T02:57:17.605Z,57.09
2018-07-12T02:58:17.505Z,57.04
2018-07-12T02:59:17.355Z,57.02
2018-07-12T03:00:17.276Z,57.07
2018-07-12T03:01:17.510Z,57.05
2018-07-12T03:02:17.544Z,57.04
2018-07-12T03:03:17.635Z,57.08
2018-07-12T03:04:17.382Z,57.06
2018-07-12T03:05:17.370Z,57.05
2018-07-12T03:06:17.612Z,57.08
2018-07-12T03:07:17.389Z,57.04
2018-07-12T03:08:17.508Z,57.11
2018-07-12T03:09:17.345Z,57.11
2018-07-12T03:10:17.552Z,57.06
2018-07-12T03:11:17.612Z,57.11
2018-07-12T03:12:17.909Z,57.09
2018-07-12T03:13:17.482Z,57.09
2018-07-12T03:14:17.767Z,57.05
2018-07-12T03:15:17.289Z,57.1
2018-07-12T03:16:17.500Z,57.07
2018-07-12T03:17:17.557Z,57.08
2018-07-12T03:18:17.291Z,57.07
2018-07-12T03:19:17.536Z,57.07
2018-07-12T03:20:17.469Z,57.1
2018-07-12T03:21:17.514Z,57.06
2018-07-12T03:22:17.604Z,57.04
2018-07-12T03:23:17.614Z,57.07
2018-07-12T03:24:17.551Z,57.08
2018-07-12T03:25:17.529Z,57.07
2018-07-12T03:26:17.458Z,57.05
2018-07-12T03:27:17.322Z,57.08
2018-07-12T03:28:17.448Z,57.11
2018-07-12T03:29:17.376Z,57.1
2018-07-12T03:30:17.525Z,57.14
2018-07-12T03:31:17.282Z,57.1
2018-07-12T03:32:17.645Z,57.12
2018-07-12T03:33:17.459Z,57.12
2018-07-12T03:34:18.687Z,57.07
2018-07-12T03:35:17.508Z,57.13
2018-07-12T03:36:17.526Z,57.11
2018-07-12T03:37:17.608Z,57.12
2018-07-12T03:38:17.424Z,57.1
2018-07-12T03:39:17.097Z,57.11
2018-07-12T03:40:19.073Z,57.1
2018-07-12T03:41:17.645Z,57.08
2018-07-12T03:42:17.140Z,57.1
2018-07-12T03:43:17.147Z,57.13
2018-07-12T03:44:17.606Z,57.12
2018-07-12T03:45:17.419Z,57.14
2018-07-12T03:46:17.523Z,57.08
2018-07-12T03:47:17.260Z,57.13
2018-07-12T03:48:18.035Z,57.14
2018-07-12T03:49:17.350Z,57.08
2018-07-12T03:50:17.070Z,57.1
2018-07-12T03:51:17.490Z,57.13
2018-07-12T03:52:17.493Z,57.1
2018-07-12T03:53:17.429Z,57.12
2018-07-12T03:54:16.626Z,57.15
2018-07-12T03:55:17.444Z,57.1
2018-07-12T03:56:17.508Z,57.13
2018-07-12T03:57:17.286Z,57.11
2018-07-12T03:58:18.800Z,57.1
2018-07-12T03:59:17.588Z,57.06
2018-07-12T04:00:17.555Z,57.14
2018-07-12T04:01:17.192Z,57.12
2018-07-12T04:02:17.441Z,57.11
2018-07-12T04:03:16.605Z,57.1
2018-07-12T04:04:17.580Z,57.11
2018-07-12T04:05:17.563Z,57.15
2018-07-12T04:06:17.570Z,57.12
2018-07-12T04:07:17.180Z,57.11
2018-07-12T04:08:17.335Z,57.11
2018-07-12T04:09:17.563Z,57.13
2018-07-12T04:10:17.244Z,57.08
2018-07-12T04:11:17.556Z,57.1
2018-07-12T04:12:17.052Z,57.14
2018-07-12T04:13:17.498Z,57.16
2018-07-12T04:14:17.130Z,57.13
2018-07-12T04:15:17.302Z,57.13
2018-07-12T04:16:18.322Z,57.15
2018-07-12T04:17:18.910Z,57.13
2018-07-12T04:18:17.091Z,57.12
2018-07-12T04:19:17.446Z,57.1
2018-07-12T04:20:17.394Z,57.13
2018-07-12T04:21:17.642Z,57.1
2018-07-12T04:22:18.852Z,57.14
2018-07-12T04:23:16.716Z,57.11
2018-07-12T04:24:17.512Z,57.17
2018-07-12T04:25:17.251Z,57.13
2018-07-12T04:26:18.302Z,57.15
2018-07-12T04:27:17.598Z,57.15
2018-07-12T04:28:17.583Z,57.16
2018-07-12T04:29:17.732Z,57.12
2018-07-12T04:30:16.588Z,57.15
2018-07-12T04:31:16.977Z,57.17
2018-07-12T04:32:16.783Z,57.14
2018-07-12T04:33:16.738Z,57.15
2018-07-12T04:34:17.665Z,57.16
2018-07-12T04:35:16.863Z,57.14
2018-07-12T04:36:16.805Z,57.16
2018-07-12T04:37:17.014Z,57.15
2018-07-12T04:38:16.796Z,57.11
2018-07-12T04:39:16.855Z,57.16
2018-07-12T04:40:16.658Z,57.12
2018-07-12T04:41:16.631Z,57.12
2018-07-12T04:42:16.692Z,57.18
2018-07-12T04:43:16.749Z,57.16
2018-07-12T04:44:16.916Z,57.16
2018-07-12T04:45:16.910Z,57.15
2018-07-12T04:46:16.852Z,57.14
2018-07-12T04:47:16.745Z,57.16
2018-07-12T04:48:16.604Z,57.16
2018-07-12T04:49:16.866Z,57.14
2018-07-12T04:50:16.800Z,57.18
2018-07-12T04:51:17.492Z,57.2
2018-07-12T04:52:16.764Z,57.17
2018-07-12T04:53:16.987Z,57.19
2018-07-12T04:54:16.640Z,57.14
2018-07-12T04:55:16.843Z,57.16
2018-07-12T04:56:16.818Z,57.2
2018-07-12T04:57:16.652Z,57.17
2018-07-12T04:58:17.873Z,57.15
2018-07-12T04:59:16.736Z,57.17
2018-07-12T05:00:16.862Z,57.2
2018-07-12T05:01:16.777Z,57.17
2018-07-12T05:02:16.890Z,57.16
2018-07-12T05:03:16.987Z,57.18
2018-07-12T05:04:16.745Z,57.19
2018-07-12T05:05:16.821Z,57.19
2018-07-12T05:06:16.625Z,57.17
2018-07-12T05:07:16.734Z,57.21
2018-07-12T05:08:16.800Z,57.15
2018-07-12T05:09:16.761Z,57.2
2018-07-12T05:10:16.734Z,57.13
2018-07-12T05:11:16.662Z,57.19
2018-07-12T05:12:16.762Z,57.18
2018-07-12T05:13:16.596Z,57.19
2018-07-12T05:14:16.791Z,57.16
2018-07-12T05:15:16.641Z,57.2
2018-07-12T05:16:17.692Z,57.16
2018-07-12T05:17:16.682Z,57.18
2018-07-12T05:18:16.701Z,57.16
2018-07-12T05:19:16.874Z,57.16
2018-07-12T05:20:16.864Z,57.16
2018-07-12T05:21:16.708Z,57.21
2018-07-12T05:22:16.743Z,57.14
2018-07-12T05:23:16.712Z,57.19
2018-07-12T05:24:16.637Z,57.16
2018-07-12T05:25:16.779Z,57.16
2018-07-12T05:26:16.792Z,57.18
2018-07-12T05:27:16.702Z,57.2
2018-07-12T05:28:17.362Z,57.17
2018-07-12T05:29:16.736Z,57.17
2018-07-12T05:30:16.760Z,57.17
2018-07-12T05:31:19.337Z,57.17
2018-07-12T05:32:17.662Z,57.18
2018-07-12T05:33:17.356Z,57.2
2018-07-12T05:34:17.036Z,57.17
2018-07-12T05:35:17.094Z,57.2
2018-07-12T05:36:17.091Z,57.19
2018-07-12T05:37:17.060Z,57.17
2018-07-12T05:38:17.059Z,57.15
2018-07-12T05:39:17.969Z,57.23
2018-07-12T05:40:17.112Z,57.18
2018-07-12T05:41:16.986Z,57.2
2018-07-12T05:42:17.254Z,57.22
2018-07-12T05:43:17.328Z,57.17
2018-07-12T05:44:17.103Z,57.16
2018-07-12T05:45:19.553Z,57.19
2018-07-12T05:46:17.091Z,57.18
2018-07-12T05:47:17.082Z,57.18
2018-07-12T05:48:16.997Z,57.19
2018-07-12T05:49:17.096Z,57.16
2018-07-12T05:50:16.984Z,57.2
2018-07-12T05:51:17.246Z,57.16
2018-07-12T05:52:17.669Z,57.19
2018-07-12T05:53:17.318Z,57.18
2018-07-12T05:54:19.642Z,57.19
2018-07-12T05:55:17.040Z,57.21
2018-07-12T05:56:17.107Z,57.19
2018-07-12T05:57:19.238Z,57.18
2018-07-12T05:58:17.030Z,57.16
2018-07-12T05:59:17.347Z,57.21
2018-07-12T06:00:17.090Z,57.23
2018-07-12T06:01:17.342Z,57.19
2018-07-12T06:02:19.232Z,57.17
2018-07-12T06:03:17.007Z,57.2
2018-07-12T06:04:19.698Z,57.19
2018-07-12T06:05:17.097Z,57.16
2018-07-12T06:06:17.052Z,57.19
2018-07-12T06:07:17.049Z,57.17
2018-07-12T06:08:17.087Z,57.23
2018-07-12T06:09:16.927Z,57.21
2018-07-12T06:10:17.122Z,57.23
2018-07-12T06:11:17.055Z,57.2
2018-07-12T06:12:17.241Z,57.19
2018-07-12T06:13:17.715Z,57.22
2018-07-12T06:14:17.320Z,57.23
2018-07-12T06:15:17.298Z,57.19
2018-07-12T06:16:17.341Z,57.21
2018-07-12T06:17:17.149Z,57.22
2018-07-12T06:18:16.930Z,57.22
2018-07-12T06:19:17.048Z,57.19
2018-07-12T06:20:17.079Z,57.23
2018-07-12T06:21:17.101Z,57.24
2018-07-12T06:22:17.176Z,57.22
2018-07-12T06:23:17.106Z,57.23
2018-07-12T06:24:17.143Z,57.25
2018-07-12T06:25:17.140Z,57.22
2018-07-12T06:26:17.317Z,57.21
2018-07-12T06:27:17.057Z,57.26
2018-07-12T06:28:17.057Z,57.2
2018-07-12T06:29:17.127Z,57.26
2018-07-12T06:30:16.901Z,57.27
2018-07-12T06:31:16.698Z,57.23
2018-07-12T06:32:16.649Z,57.18
2018-07-12T06:33:16.850Z,57.22
2018-07-12T06:34:16.640Z,57.22
2018-07-12T06:35:16.852Z,57.25
2018-07-12T06:36:16.637Z,57.23
2018-07-12T06:37:17.913Z,57.2
2018-07-12T06:38:16.649Z,57.22
2018-07-12T06:39:16.696Z,57.24
2018-07-12T06:40:16.834Z,57.22
2018-07-12T06:41:16.632Z,57.27
2018-07-12T06:42:16.729Z,57.26
2018-07-12T06:43:16.681Z,57.22
2018-07-12T06:44:16.893Z,57.24
2018-07-12T06:45:16.616Z,57.25
2018-07-12T06:46:16.830Z,57.19
2018-07-12T06:47:16.700Z,57.25
2018-07-12T06:48:16.747Z,57.22
2018-07-12T06:49:16.598Z,57.23
2018-07-12T06:50:16.893Z,57.26
2018-07-12T06:51:16.843Z,57.27
2018-07-12T06:52:16.806Z,57.22
2018-07-12T06:53:16.796Z,57.23
2018-07-12T06:54:17.515Z,57.27
2018-07-12T06:55:16.673Z,57.25
2018-07-12T06:56:16.816Z,57.23
2018-07-12T06:57:16.805Z,57.23
2018-07-12T06:58:32.941Z,57.23
2018-07-12T06:59:16.816Z,57.27
2018-07-12T07:00:16.808Z,57.28
2018-07-12T07:01:16.812Z,57.22
2018-07-12T07:02:16.656Z,57.28
2018-07-12T07:03:16.667Z,57.28
2018-07-12T07:04:16.639Z,57.28
2018-07-12T07:05:16.855Z,57.26
2018-07-12T07:06:16.683Z,57.29
2018-07-12T07:07:16.750Z,57.24
2018-07-12T07:08:16.753Z,57.28
2018-07-12T07:09:16.937Z,57.3
2018-07-12T07:10:16.852Z,57.22
2018-07-12T07:11:16.879Z,57.28
2018-07-12T07:12:16.592Z,57.28
2018-07-12T07:13:17.681Z,57.24
2018-07-12T07:14:16.794Z,57.25
2018-07-12T07:15:16.748Z,57.3
2018-07-12T07:16:16.748Z,57.26
2018-07-12T07:17:16.674Z,57.24
2018-07-12T07:18:16.779Z,57.27
2018-07-12T07:19:16.741Z,57.25
2018-07-12T07:20:17.628Z,57.25
2018-07-12T07:21:16.469Z,57.27
2018-07-12T07:22:16.592Z,57.21
2018-07-12T07:23:16.628Z,57.16
2018-07-12T07:24:16.872Z,57.24
2018-07-12T07:25:16.816Z,57.46
2018-07-12T07:26:17.713Z,57.49
2018-07-12T07:27:16.887Z,57.54
2018-07-12T07:28:16.651Z,57.44
2018-07-12T07:29:16.719Z,57.39
2018-07-12T07:30:16.580Z,57.38
2018-07-12T07:31:16.701Z,57.37
2018-07-12T07:32:16.951Z,57.37
2018-07-12T07:33:16.856Z,57.32
2018-07-12T07:34:16.668Z,57.28
2018-07-12T07:35:16.699Z,57.31
2018-07-12T07:36:16.887Z,57.34
2018-07-12T07:37:16.823Z,57.31
2018-07-12T07:38:16.728Z,57.31
2018-07-12T07:39:16.643Z,57.3
2018-07-12T07:40:16.539Z,57.28
2018-07-12T07:41:16.817Z,57.16
2018-07-12T07:42:16.820Z,57.26
2018-07-12T07:43:17.774Z,57.21
2018-07-12T07:44:16.854Z,57.23
2018-07-12T07:45:16.715Z,57.32
2018-07-12T07:46:16.691Z,57.31
2018-07-12T07:47:16.679Z,57.31
2018-07-12T07:48:16.642Z,57.33
2018-07-12T07:49:17.564Z,57.31
2018-07-12T07:50:16.743Z,57.33
2018-07-12T07:51:16.763Z,57.35
2018-07-12T07:52:16.801Z,57.32
2018-07-12T07:53:16.855Z,57.31
2018-07-12T07:54:16.735Z,57.36
2018-07-12T07:55:16.727Z,57.31
2018-07-12T07:56:16.601Z,57.33
2018-07-12T07:57:16.639Z,57.34
2018-07-12T07:58:16.642Z,57.37
2018-07-12T07:59:16.645Z,57.33
2018-07-12T08:00:16.769Z,57.36
2018-07-12T08:01:16.738Z,57.35
2018-07-12T08:02:16.751Z,57.34
2018-07-12T08:03:17.215Z,57.38
2018-07-12T08:04:16.750Z,57.36
2018-07-12T08:05:16.628Z,57.37
2018-07-12T08:06:16.535Z,57.38
2018-07-12T08:07:16.770Z,57.33
2018-07-12T08:08:16.775Z,57.41
2018-07-12T08:09:16.760Z,57.36
2018-07-12T08:10:16.810Z,57.29
2018-07-12T08:11:16.631Z,57.33
2018-07-12T08:12:16.812Z,57.37
2018-07-12T08:13:16.858Z,57.32
2018-07-12T08:14:16.667Z,57.35
2018-07-12T08:15:16.585Z,57.38
2018-07-12T08:16:18.174Z,57.33
2018-07-12T08:17:16.844Z,57.34
2018-07-12T08:18:16.774Z,57.35
2018-07-12T08:19:16.799Z,57.31
2018-07-12T08:20:16.646Z,57.34
2018-07-12T08:21:16.526Z,57.35
2018-07-12T08:22:16.587Z,57.36
2018-07-12T08:23:16.808Z,57.33
2018-07-12T08:24:16.619Z,57.34
2018-07-12T08:25:16.823Z,57.33
2018-07-12T08:26:16.905Z,57.3
2018-07-12T08:27:16.858Z,57.34
2018-07-12T08:28:16.971Z,57.31
2018-07-12T08:29:16.763Z,57.32
2018-07-12T08:30:16.780Z,57.31
2018-07-12T08:31:17.554Z,57.3
2018-07-12T08:32:16.581Z,57.3
2018-07-12T08:33:17.036Z,57.32
2018-07-12T08:34:16.762Z,57.3
2018-07-12T08:35:16.812Z,57.32
2018-07-12T08:36:17.144Z,57.35
2018-07-12T08:37:16.581Z,57.31
2018-07-12T08:38:16.804Z,57.31
2018-07-12T08:39:16.787Z,57.31
2018-07-12T08:40:16.641Z,57.27
2018-07-12T08:41:16.651Z,57.31
2018-07-12T08:42:16.766Z,57.28
2018-07-12T08:43:17.074Z,57.27
2018-07-12T08:44:16.823Z,57.3
2018-07-12T08:45:16.845Z,57.31
2018-07-12T08:46:17.409Z,57.29
2018-07-12T08:47:16.866Z,57.27
2018-07-12T08:48:17.434Z,57.31
2018-07-12T08:49:16.531Z,57.26
2018-07-12T08:50:16.814Z,57.29
2018-07-12T08:51:16.523Z,57.27
2018-07-12T08:52:16.493Z,57.27
2018-07-12T08:53:16.817Z,57.27
2018-07-12T08:54:16.815Z,57.32
2018-07-12T08:55:16.877Z,57.27
2018-07-12T08:56:16.663Z,57.29
2018-07-12T08:57:16.634Z,57.29
2018-07-12T08:58:16.903Z,57.3
2018-07-12T08:59:16.539Z,57.29
2018-07-12T09:00:16.775Z,57.3
2018-07-12T09:01:16.765Z,57.29
2018-07-12T09:02:16.799Z,57.26
2018-07-12T09:03:16.964Z,57.28
2018-07-12T09:04:16.875Z,57.27
2018-07-12T09:05:16.977Z,57.31
2018-07-12T09:06:16.635Z,57.27
2018-07-12T09:07:16.767Z,57.27
2018-07-12T09:08:16.853Z,57.28
2018-07-12T09:09:16.835Z,57.31
2018-07-12T09:10:16.804Z,57.26
2018-07-12T09:11:26.805Z,57.27
2018-07-12T09:12:16.721Z,57.32
2018-07-12T09:13:16.572Z,57.29
2018-07-12T09:14:16.621Z,57.24
2018-07-12T09:15:16.532Z,57.27
2018-07-12T09:16:16.601Z,57.27
2018-07-12T09:17:16.759Z,57.26
2018-07-12T09:18:16.817Z,57.3
2018-07-12T09:19:16.640Z,57.29
2018-07-12T09:20:16.559Z,57.26
2018-07-12T09:21:16.754Z,57.29
2018-07-12T09:22:16.560Z,57.26
2018-07-12T09:23:16.626Z,57.26
2018-07-12T09:24:16.721Z,57.31
2018-07-12T09:25:16.620Z,57.25
2018-07-12T09:26:16.558Z,57.27
2018-07-12T09:27:16.825Z,57.28
2018-07-12T09:28:16.656Z,57.28
2018-07-12T09:29:17.517Z,57.24
2018-07-12T09:30:16.818Z,57.27
2018-07-12T09:31:16.603Z,57.25
2018-07-12T09:32:16.824Z,57.25
2018-07-12T09:33:16.792Z,57.34
2018-07-12T09:34:16.876Z,57.29
2018-07-12T09:35:16.764Z,57.26
2018-07-12T09:36:17.391Z,57.29
2018-07-12T09:37:16.867Z,57.26
2018-07-12T09:38:16.619Z,57.29
2018-07-12T09:39:17.164Z,57.28
2018-07-12T09:40:16.727Z,57.27
2018-07-12T09:41:16.793Z,57.28
2018-07-12T09:42:16.834Z,57.32
2018-07-12T09:43:16.809Z,57.25
2018-07-12T09:44:16.588Z,57.27
2018-07-12T09:45:17.877Z,57.28
2018-07-12T09:46:16.763Z,57.23
2018-07-12T09:47:17.387Z,57.25
2018-07-12T09:48:17.792Z,57.25
2018-07-12T09:49:18.196Z,57.27
2018-07-12T09:50:17.917Z,57.3
2018-07-12T09:51:16.860Z,57.31
2018-07-12T09:52:16.853Z,57.31
2018-07-12T09:53:16.837Z,57.24
2018-07-12T09:54:17.491Z,57.31
2018-07-12T09:55:16.579Z,57.27
2018-07-12T09:56:18.063Z,57.29
2018-07-12T09:57:16.592Z,57.3
2018-07-12T09:58:16.888Z,57.31
2018-07-12T09:59:16.675Z,57.27
2018-07-12T10:00:16.671Z,57.33
2018-07-12T10:01:17.372Z,57.29
2018-07-12T10:02:16.654Z,57.31
2018-07-12T10:03:16.650Z,57.31
2018-07-12T10:04:16.862Z,57.31
2018-07-12T10:05:16.547Z,57.27
2018-07-12T10:06:16.890Z,57.32
2018-07-12T10:07:16.513Z,57.26
2018-07-12T10:08:16.653Z,57.28
2018-07-12T10:09:16.550Z,57.31
2018-07-12T10:10:16.793Z,57.29
2018-07-12T10:11:16.627Z,57.28
2018-07-12T10:12:16.848Z,57.31
2018-07-12T10:13:16.602Z,57.28
2018-07-12T10:14:16.530Z,57.26
2018-07-12T10:15:17.085Z,57.29
2018-07-12T10:16:16.649Z,57.25
2018-07-12T10:17:16.771Z,57.28
2018-07-12T10:18:16.730Z,57.3
2018-07-12T10:19:16.779Z,57.25
2018-07-12T10:20:16.988Z,57.26
2018-07-12T10:21:16.779Z,57.28
2018-07-12T10:22:16.897Z,57.3
2018-07-12T10:23:16.555Z,57.29
2018-07-12T10:24:16.802Z,57.31
2018-07-12T10:25:16.683Z,57.25
2018-07-12T10:26:17.144Z,57.28
2018-07-12T10:27:16.792Z,57.29
2018-07-12T10:28:16.802Z,57.3
2018-07-12T10:29:16.688Z,57.27
2018-07-12T10:30:16.606Z,57.27
2018-07-12T10:31:16.574Z,57.27
2018-07-12T10:32:16.506Z,57.28
2018-07-12T10:33:16.697Z,57.3
2018-07-12T10:34:16.521Z,57.29
2018-07-12T10:35:16.567Z,57.26
2018-07-12T10:36:16.677Z,57.34
2018-07-12T10:37:16.732Z,57.27
2018-07-12T10:38:16.603Z,57.28
2018-07-12T10:39:16.736Z,57.27
2018-07-12T10:40:16.697Z,57.28
2018-07-12T10:41:16.632Z,57.27
2018-07-12T10:42:16.741Z,57.31
2018-07-12T10:43:16.594Z,57.28
2018-07-12T10:44:16.652Z,57.26
2018-07-12T10:45:16.760Z,57.3
2018-07-12T10:46:16.758Z,57.31
2018-07-12T10:47:16.699Z,57.28
2018-07-12T10:48:17.073Z,57.35
2018-07-12T10:49:16.757Z,57.31
2018-07-12T10:50:16.539Z,57.3
2018-07-12T10:51:16.547Z,57.3
2018-07-12T10:52:16.616Z,57.31
2018-07-12T10:53:16.584Z,57.29
2018-07-12T10:54:16.943Z,57.28
2018-07-12T10:55:16.932Z,57.31
2018-07-12T10:56:16.580Z,57.31
2018-07-12T10:57:16.663Z,57.35
2018-07-12T10:58:16.825Z,57.28
2018-07-12T10:59:16.599Z,57.29
2018-07-12T11:00:16.811Z,57.33
2018-07-12T11:01:16.784Z,57.28
2018-07-12T11:02:16.810Z,57.28
2018-07-12T11:03:16.712Z,57.31
2018-07-12T11:04:16.909Z,57.31
2018-07-12T11:05:16.864Z,57.27
2018-07-12T11:06:16.623Z,57.31
2018-07-12T11:07:17.056Z,57.28
2018-07-12T11:08:16.858Z,57.28
2018-07-12T11:09:16.936Z,57.34
2018-07-12T11:10:16.753Z,57.33
2018-07-12T11:11:16.714Z,57.33
2018-07-12T11:12:16.876Z,57.32
2018-07-12T11:13:16.897Z,57.31
2018-07-12T11:14:16.600Z,57.3
2018-07-12T11:15:16.935Z,57.3
2018-07-12T11:16:16.682Z,57.33
2018-07-12T11:17:16.596Z,57.27
2018-07-12T11:18:17.284Z,57.3
2018-07-12T11:19:16.602Z,57.29
2018-07-12T11:20:16.935Z,57.29
2018-07-12T11:21:17.710Z,57.34
2018-07-12T11:22:17.044Z,57.32
2018-07-12T11:23:16.641Z,57.31
2018-07-12T11:24:16.540Z,57.33
2018-07-12T11:25:16.787Z,57.35
2018-07-12T11:26:16.674Z,57.28
2018-07-12T11:27:16.615Z,57.32
2018-07-12T11:28:17.178Z,57.28
2018-07-12T11:29:16.637Z,57.31
2018-07-12T11:30:16.996Z,57.29
2018-07-12T11:31:16.533Z,57.31
2018-07-12T11:32:16.913Z,57.32
2018-07-12T11:33:16.728Z,56.6
2018-07-12T11:34:16.998Z,56.76
2018-07-12T11:35:16.572Z,56.95
2018-07-12T11:36:17.123Z,57.09
2018-07-12T11:37:16.683Z,57.16
2018-07-12T11:38:16.874Z,57.05
2018-07-12T11:39:16.738Z,57.16
2018-07-12T11:40:17.031Z,57.16
2018-07-12T11:41:16.699Z,57.24
2018-07-12T11:42:16.670Z,57.12
2018-07-12T11:43:16.808Z,57.07
2018-07-12T11:44:16.737Z,57.13
2018-07-12T11:45:16.743Z,57.27
2018-07-12T11:46:16.537Z,57.27
2018-07-12T11:47:16.622Z,57.31
2018-07-12T11:48:16.606Z,57.25
2018-07-12T11:49:16.599Z,57.16
2018-07-12T11:50:16.722Z,57.18
2018-07-12T11:51:16.586Z,57.17
2018-07-12T11:52:16.572Z,57.22
2018-07-12T11:53:16.638Z,57.18
2018-07-12T11:54:16.758Z,57.23
2018-07-12T11:55:16.605Z,57.21
2018-07-12T11:56:16.703Z,57.26
2018-07-12T11:57:16.528Z,57.2
2018-07-12T11:58:16.752Z,57.2
2018-07-12T11:59:16.556Z,57.2
2018-07-12T12:00:16.701Z,57.23
2018-07-12T12:01:17.139Z,57.2
2018-07-12T12:02:16.684Z,57.28
2018-07-12T12:03:16.612Z,57.24
2018-07-12T12:04:17.150Z,57.19
2018-07-12T12:05:16.646Z,57.24
2018-07-12T12:06:16.511Z,57.24
2018-07-12T12:07:16.523Z,57.29
2018-07-12T12:08:16.870Z,57.32
2018-07-12T12:09:16.790Z,57.29
2018-07-12T12:10:16.846Z,57.27
2018-07-12T12:11:16.778Z,57.32
2018-07-12T12:12:16.717Z,57.38
2018-07-12T12:13:16.735Z,57.43
2018-07-12T12:14:16.841Z,57.33
2018-07-12T12:15:16.522Z,57.33
2018-07-12T12:16:16.663Z,57.35
2018-07-12T12:17:16.592Z,57.28
2018-07-12T12:18:16.612Z,57.32
2018-07-12T12:19:16.920Z,57.29
2018-07-12T12:20:16.592Z,57.32
2018-07-12T12:21:16.677Z,57.29
2018-07-12T12:22:16.875Z,57.34
2018-07-12T12:23:16.725Z,57.28
2018-07-12T12:24:16.541Z,57.26
2018-07-12T12:25:16.898Z,57.3
2018-07-12T12:26:16.496Z,57.29
2018-07-12T12:27:16.528Z,57.27
2018-07-12T12:28:17.020Z,57.28
2018-07-12T12:29:16.659Z,57.3
2018-07-12T12:30:16.548Z,57.35
2018-07-12T12:31:16.589Z,57.3
2018-07-12T12:32:16.683Z,57.28
2018-07-12T12:33:16.441Z,57.31
2018-07-12T12:34:16.678Z,57.28
2018-07-12T12:35:16.794Z,57.32
2018-07-12T12:36:16.883Z,57.32
2018-07-12T12:37:16.872Z,57.33
2018-07-12T12:38:16.558Z,57.32
2018-07-12T12:39:16.861Z,57.36
2018-07-12T12:40:16.808Z,57.32
2018-07-12T12:41:16.690Z,57.27
2018-07-12T12:42:16.564Z,57.33
2018-07-12T12:43:16.726Z,57.31
2018-07-12T12:44:16.659Z,57.32
2018-07-12T12:45:16.632Z,57.31
2018-07-12T12:46:16.537Z,57.32
2018-07-12T12:47:16.701Z,57.3
2018-07-12T12:48:16.810Z,57.33
2018-07-12T12:49:16.601Z,57.37
2018-07-12T12:50:16.553Z,57.34
2018-07-12T12:51:16.548Z,57.32
2018-07-12T12:52:16.481Z,57.31
2018-07-12T12:53:16.583Z,57.28
2018-07-12T12:54:16.789Z,57.32
2018-07-12T12:55:16.519Z,57.35
2018-07-12T12:56:16.630Z,57.29